Time;durP1;ratioP1;P1;durP2;ratioP2;P2;SDS_P1;SDS_P2;PMS_P1;PMS_P2;Temp;Humidity;BMP_temperature;BMP_pressure;BME280_temperature;BME280_humidity;BME280_pressure;Samples;Min_cycle;Max_cycle;Signal;HPM_P1;HPM_P2
2024/01/26 00:03:28;;;;;;;12.90;3.07;;;5.00;1.00;;;;;;8391968;28;20193;-63
2024/01/26 00:07:29;;;;;;;16.33;3.50;;;4.90;1.00;;;;;;8391656;28;20189;-63
2024/01/26 00:11:30;;;;;;;13.10;3.00;;;4.90;1.00;;;;;;8398895;28;20254;-63
2024/01/26 00:15:31;;;;;;;10.33;2.70;;;4.90;1.00;;;;;;8395114;28;20189;-63
2024/01/26 00:19:31;;;;;;;8.80;2.80;;;4.80;1.00;;;;;;8388586;28;20205;-63
2024/01/26 00:23:32;;;;;;;11.30;3.07;;;4.70;1.00;;;;;;8396479;28;20184;-63
2024/01/26 00:27:35;;;;;;;11.73;2.87;;;4.60;1.00;;;;;;8404068;28;20247;-63
2024/01/26 00:31:36;;;;;;;13.13;2.90;;;4.50;1.00;;;;;;8393665;28;20300;-63
2024/01/26 00:35:36;;;;;;;12.57;3.13;;;4.50;1.00;;;;;;8394164;28;20197;-63
2024/01/26 00:39:37;;;;;;;10.13;3.17;;;4.50;1.00;;;;;;8393689;28;20207;-62
2024/01/26 00:43:38;;;;;;;12.70;2.53;;;4.50;1.00;;;;;;8394804;28;20267;-63
2024/01/26 00:47:38;;;;;;;10.70;3.13;;;4.50;1.00;;;;;;8390736;28;20782;-63
2024/01/26 00:51:39;;;;;;;9.87;3.20;;;4.50;1.00;;;;;;8394662;28;20180;-64
2024/01/26 00:55:40;;;;;;;12.43;3.70;;;4.60;1.00;;;;;;8390962;28;20250;-63
2024/01/26 00:59:41;;;;;;;12.17;2.70;;;4.60;1.00;;;;;;8395720;28;20196;-63
2024/01/26 01:03:42;;;;;;;11.63;2.97;;;4.60;1.00;;;;;;8394009;28;20243;-63
2024/01/26 01:07:43;;;;;;;13.27;2.60;;;4.60;1.00;;;;;;8396297;28;20183;-63
2024/01/26 01:11:43;;;;;;;10.50;2.93;;;4.60;1.00;;;;;;8388832;28;20185;-63
2024/01/26 01:15:44;;;;;;;9.47;2.33;;;4.60;1.00;;;;;;8398620;28;20184;-63
2024/01/26 01:19:45;;;;;;;14.37;3.03;;;4.50;1.00;;;;;;8387379;28;20225;-63
2024/01/26 01:23:46;;;;;;;12.33;3.10;;;4.60;1.00;;;;;;8391469;28;20188;-63
2024/01/26 01:27:46;;;;;;;11.43;2.90;;;4.50;5.60;;;;;;8388961;28;20181;-63
2024/01/26 01:31:47;;;;;;;10.30;3.33;;;4.50;1.00;;;;;;8394045;28;20296;-63
2024/01/26 01:35:48;;;;;;;8.17;2.40;;;4.60;1.00;;;;;;8390383;28;20208;-66
2024/01/26 01:39:49;;;;;;;9.23;2.80;;;4.60;1.00;;;;;;8388566;28;20209;-63
2024/01/26 01:43:54;;;;;;;8.30;2.63;;;4.50;1.00;;;;;;8390329;28;20189;-62
2024/01/26 01:47:55;;;;;;;11.77;3.17;;;4.50;1.00;;;;;;8389973;28;20187;-63
2024/01/26 01:52:00;;;;;;;6.83;2.27;;;4.50;3.70;;;;;;8388202;28;20185;-64
2024/01/26 01:56:03;;;;;;;12.70;2.80;;;4.50;4.20;;;;;;8390186;28;20186;-63
2024/01/26 02:00:04;;;;;;;12.73;2.80;;;4.50;11.50;;;;;;8387201;28;20212;-63
2024/01/26 02:04:05;;;;;;;9.67;1.93;;;4.40;16.10;;;;;;8389604;28;20188;-62
2024/01/26 02:08:06;;;;;;;12.10;2.70;;;4.40;18.60;;;;;;8390249;28;20185;-61
2024/01/26 02:12:07;;;;;;;19.20;3.23;;;4.40;24.80;;;;;;8389552;28;20280;-62
2024/01/26 02:16:07;;;;;;;9.73;3.17;;;4.40;24.70;;;;;;8392936;28;20196;-61
2024/01/26 02:20:09;;;;;;;12.53;3.00;;;4.40;44.70;;;;;;8394342;28;20306;-60
2024/01/26 02:24:09;;;;;;;11.57;2.73;;;4.40;36.50;;;;;;8391587;28;20181;-62
2024/01/26 02:28:10;;;;;;;12.13;2.70;;;4.40;37.90;;;;;;8394627;28;20635;-61
2024/01/26 02:32:11;;;;;;;16.43;4.17;;;4.40;46.50;;;;;;8391847;28;20248;-62
2024/01/26 02:36:12;;;;;;;15.57;3.17;;;4.30;48.80;;;;;;8389816;28;20203;-60
2024/01/26 02:40:13;;;;;;;13.47;3.60;;;4.40;51.50;;;;;;8386127;28;20204;-61
2024/01/26 02:44:14;;;;;;;10.40;3.10;;;4.40;54.30;;;;;;8393263;28;20180;-63
2024/01/26 02:48:14;;;;;;;12.10;2.97;;;4.40;61.30;;;;;;8388010;28;20493;-61
2024/01/26 02:52:15;;;;;;;14.23;3.53;;;4.30;79.70;;;;;;8390670;28;20265;-61
2024/01/26 02:56:16;;;;;;;10.80;2.77;;;4.20;93.00;;;;;;8391520;28;20296;-61
2024/01/26 03:00:16;;;;;;;10.37;2.87;;;4.20;99.90;;;;;;8389873;28;20263;-60
2024/01/26 03:04:20;;;;;;;9.83;2.97;;;4.20;99.90;;;;;;8392492;28;20184;-61
2024/01/26 03:08:21;;;;;;;18.57;3.60;;;4.10;99.90;;;;;;8401927;28;20181;-61
2024/01/26 03:12:21;;;;;;;11.13;3.13;;;4.10;99.90;;;;;;8400987;28;20289;-63
2024/01/26 03:16:22;;;;;;;7.93;2.83;;;4.00;99.90;;;;;;8397152;28;20184;-63
2024/01/26 03:20:23;;;;;;;13.10;3.57;;;4.00;99.90;;;;;;8392931;28;20247;-63
2024/01/26 03:24:24;;;;;;;12.80;3.73;;;4.00;99.90;;;;;;8393934;28;20213;-63
2024/01/26 03:28:24;;;;;;;11.33;3.33;;;3.90;99.90;;;;;;8397332;28;20195;-63
2024/01/26 03:32:25;;;;;;;9.87;2.73;;;3.80;99.90;;;;;;8396821;28;20185;-62
2024/01/26 03:36:26;;;;;;;7.77;2.70;;;3.70;99.90;;;;;;8396135;28;20358;-62
2024/01/26 03:40:27;;;;;;;14.27;3.43;;;3.60;99.90;;;;;;8396150;28;20215;-61
2024/01/26 03:44:28;;;;;;;9.13;3.00;;;3.50;99.90;;;;;;8397968;28;20177;-61
2024/01/26 03:48:28;;;;;;;14.17;3.17;;;3.40;99.90;;;;;;8398429;28;20213;-62
2024/01/26 03:52:29;;;;;;;10.30;2.70;;;3.30;99.90;;;;;;8396293;28;20196;-62
2024/01/26 03:56:30;;;;;;;10.53;2.57;;;3.20;1.00;;;;;;8398842;28;20196;-60
2024/01/26 04:00:32;;;;;;;6.33;2.50;;;3.20;1.00;;;;;;8396832;28;20212;-62
2024/01/26 04:04:33;;;;;;;6.80;2.73;;;3.10;1.00;;;;;;8401883;28;20193;-61
2024/01/26 04:08:33;;;;;;;9.43;2.80;;;3.10;1.00;;;;;;8394388;28;20212;-62
2024/01/26 04:12:34;;;;;;;8.00;2.70;;;3.00;1.00;;;;;;8405003;28;20188;-62
2024/01/26 04:16:35;;;;;;;9.00;2.73;;;2.90;1.00;;;;;;8394273;28;20189;-61
2024/01/26 04:20:36;;;;;;;7.23;2.80;;;2.80;1.00;;;;;;8400722;28;20204;-62
2024/01/26 04:24:36;;;;;;;11.77;2.57;;;2.50;1.00;;;;;;8402840;28;20198;-62
2024/01/26 04:28:37;;;;;;;6.00;2.30;;;2.30;1.00;;;;;;8396115;28;20189;-61
2024/01/26 04:32:38;;;;;;;7.73;2.30;;;2.10;1.00;;;;;;8396389;28;20654;-63
2024/01/26 04:36:46;;;;;;;6.33;2.40;;;1.90;1.00;;;;;;8393712;28;20215;-63
2024/01/26 04:40:47;;;;;;;5.57;2.57;;;1.60;1.00;;;;;;8392352;28;20220;-63
2024/01/26 04:44:47;;;;;;;4.97;2.27;;;1.40;1.00;;;;;;8390874;28;20193;-63
2024/01/26 04:48:48;;;;;;;8.87;2.50;;;1.20;1.00;;;;;;8394564;28;20188;-63
2024/01/26 04:52:52;;;;;;;6.73;2.57;;;1.00;1.00;;;;;;8390871;28;20192;-63
2024/01/26 04:56:53;;;;;;;5.93;2.33;;;0.80;70.90;;;;;;8393772;28;20196;-63
2024/01/26 05:00:54;;;;;;;8.40;2.13;;;0.70;99.90;;;;;;8387590;28;20228;-63
2024/01/26 05:04:54;;;;;;;6.13;2.27;;;0.60;99.90;;;;;;8390955;28;20216;-63
2024/01/26 05:08:55;;;;;;;7.57;2.40;;;0.50;99.90;;;;;;8389853;28;20193;-62
2024/01/26 05:12:56;;;;;;;8.57;3.07;;;0.30;99.90;;;;;;8389201;28;20188;-62
2024/01/26 05:16:57;;;;;;;6.77;2.50;;;0.20;99.90;;;;;;8389224;28;20196;-62
2024/01/26 05:20:58;;;;;;;7.60;2.63;;;0.00;99.90;;;;;;8393540;28;20295;-62
2024/01/26 05:24:58;;;;;;;3.87;2.00;;;-0.10;1.00;;;;;;8392684;28;20197;-63
2024/01/26 05:28:59;;;;;;;6.10;2.30;;;-0.20;1.00;;;;;;8389506;28;21601;-61
2024/01/26 05:33:01;;;;;;;7.03;2.87;;;-0.30;99.90;;;;;;8391135;28;20260;-61
2024/01/26 05:37:01;;;;;;;10.43;3.63;;;-0.30;1.00;;;;;;8392413;28;20207;-60
2024/01/26 05:41:02;;;;;;;13.40;3.33;;;-0.30;99.90;;;;;;8394910;28;20218;-61
2024/01/26 05:45:04;;;;;;;10.30;2.90;;;-0.30;1.00;;;;;;8387499;28;20188;-60
2024/01/26 05:49:04;;;;;;;8.83;2.83;;;-0.30;97.60;;;;;;8393563;28;20189;-60
2024/01/26 05:53:07;;;;;;;9.53;4.03;;;-0.30;99.90;;;;;;8393147;28;20194;-62
2024/01/26 05:57:08;;;;;;;9.00;3.83;;;-0.30;1.00;;;;;;8395507;28;20208;-61
2024/01/26 06:01:09;;;;;;;9.63;3.30;;;-0.40;91.80;;;;;;8391698;28;20299;-61
2024/01/26 06:05:10;;;;;;;7.73;3.70;;;-0.40;99.90;;;;;;8391831;28;20493;-60
2024/01/26 06:09:10;;;;;;;5.20;3.03;;;-0.50;1.00;;;;;;8399547;28;20236;-59
2024/01/26 06:13:11;;;;;;;8.33;3.40;;;-0.50;99.90;;;;;;8387553;28;20214;-60
2024/01/26 06:17:12;;;;;;;7.73;3.40;;;-0.50;99.90;;;;;;8393720;28;20192;-60
2024/01/26 06:21:13;;;;;;;9.57;4.10;;;-0.50;1.00;;;;;;8392395;28;20196;-60
2024/01/26 06:25:14;;;;;;;9.03;3.67;;;-0.60;99.90;;;;;;8395608;28;20184;-59
2024/01/26 06:29:15;;;;;;;13.47;5.07;;;-0.60;99.90;;;;;;8391449;28;20185;-60
2024/01/26 06:33:15;;;;;;;13.23;6.43;;;-0.70;99.90;;;;;;8391549;28;20218;-61
2024/01/26 06:37:16;;;;;;;17.47;7.80;;;-0.70;99.90;;;;;;8389952;28;20227;-60
2024/01/26 06:41:17;;;;;;;12.33;7.37;;;-0.70;99.90;;;;;;8391200;28;20207;-60
2024/01/26 06:45:18;;;;;;;13.37;6.73;;;-0.80;99.90;;;;;;8391984;28;20177;-60
2024/01/26 06:49:19;;;;;;;15.17;6.50;;;-0.70;1.00;;;;;;8390451;28;20381;-61
2024/01/26 06:53:21;;;;;;;11.40;5.80;;;-0.70;1.00;;;;;;8387361;28;20280;-60
2024/01/26 06:57:21;;;;;;;12.73;5.73;;;-0.60;99.90;;;;;;8392924;28;20212;-63
2024/01/26 07:01:22;;;;;;;11.30;5.50;;;-0.60;99.90;;;;;;8400223;28;20213;-64
2024/01/26 07:05:23;;;;;;;15.53;5.40;;;-0.40;99.90;;;;;;8392942;28;20210;-64
2024/01/26 07:09:23;;;;;;;9.60;5.10;;;-0.30;99.90;;;;;;8391414;28;20183;-64
2024/01/26 07:13:24;;;;;;;8.73;5.57;;;-0.20;99.90;;;;;;8394815;28;20196;-63
2024/01/26 07:17:25;;;;;;;9.97;4.20;;;-0.10;99.90;;;;;;8386804;28;20177;-63
2024/01/26 07:21:28;;;;;;;11.33;4.83;;;-0.10;99.90;;;;;;8385818;28;20208;-65
2024/01/26 07:25:30;;;;;;;12.33;5.03;;;0.00;99.90;;;;;;8393178;28;20189;-64
2024/01/26 07:29:32;;;;;;;9.83;5.13;;;0.10;99.90;;;;;;8397036;28;20185;-64
2024/01/26 07:33:33;;;;;;;13.00;5.40;;;0.30;99.90;;;;;;8389403;28;20220;-64
2024/01/26 07:37:34;;;;;;;15.67;6.40;;;0.60;99.90;;;;;;8391685;28;20176;-64
2024/01/26 07:41:35;;;;;;;19.07;7.23;;;0.90;99.90;;;;;;8390702;28;20272;-64
2024/01/26 07:45:36;;;;;;;23.63;8.30;;;1.40;99.90;;;;;;8395122;28;20185;-64
2024/01/26 07:49:36;;;;;;;23.37;7.77;;;1.90;99.90;;;;;;8388509;28;20192;-64
2024/01/26 07:53:37;;;;;;;21.00;7.83;;;2.10;99.90;;;;;;8396762;28;20254;-64
2024/01/26 07:57:38;;;;;;;16.97;6.77;;;2.40;99.90;;;;;;8397995;28;20276;-64
2024/01/26 08:01:42;;;;;;;19.97;7.30;;;2.50;99.90;;;;;;8396635;28;20284;-64
2024/01/26 08:05:42;;;;;;;17.83;6.73;;;2.70;99.90;;;;;;8395323;28;20188;-64
2024/01/26 08:09:44;;;;;;;13.30;6.37;;;2.80;99.90;;;;;;8398204;28;20193;-64
2024/01/26 08:13:44;;;;;;;16.70;6.30;;;3.00;99.90;;;;;;8396501;28;20266;-65
2024/01/26 08:17:45;;;;;;;15.37;6.43;;;3.20;99.90;;;;;;8398815;28;20192;-65
2024/01/26 08:21:46;;;;;;;18.63;6.03;;;3.40;99.90;;;;;;8401163;28;20208;-65
2024/01/26 08:25:47;;;;;;;14.53;6.33;;;3.70;99.90;;;;;;8396596;28;20304;-65
2024/01/26 08:29:47;;;;;;;9.93;5.10;;;4.00;99.90;;;;;;8396289;28;20410;-66
2024/01/26 08:33:51;;;;;;;15.20;6.17;;;4.20;99.90;;;;;;8392955;28;20215;-64
2024/01/26 08:37:52;;;;;;;9.23;4.57;;;4.50;99.90;;;;;;8390036;28;20656;-64
2024/01/26 08:41:53;;;;;;;9.57;4.50;;;4.70;99.90;;;;;;8394120;28;20231;-64
2024/01/26 08:45:54;;;;;;;14.30;4.90;;;4.90;99.90;;;;;;8390199;28;20193;-63
2024/01/26 08:49:54;;;;;;;13.77;5.10;;;5.20;99.90;;;;;;8389607;28;20275;-64
2024/01/26 08:53:55;;;;;;;12.60;4.33;;;5.40;99.90;;;;;;8392111;28;20532;-65
2024/01/26 08:57:56;;;;;;;13.57;4.93;;;5.60;99.90;;;;;;8396180;28;20192;-64
2024/01/26 09:01:57;;;;;;;12.37;4.57;;;5.70;99.90;;;;;;8388397;28;20216;-64
2024/01/26 09:05:58;;;;;;;8.47;3.93;;;5.80;99.90;;;;;;8392565;28;20219;-64
2024/01/26 09:09:58;;;;;;;10.73;4.03;;;5.90;99.90;;;;;;8393572;28;20193;-64
2024/01/26 09:13:59;;;;;;;13.30;4.20;;;6.00;99.90;;;;;;8393267;28;20201;-64
2024/01/26 09:18:01;;;;;;;9.17;4.17;;;6.10;99.90;;;;;;8389158;28;20193;-65
2024/01/26 09:22:03;;;;;;;12.83;4.27;;;6.10;51.60;;;;;;8392974;28;20223;-65
2024/01/26 09:26:03;;;;;;;9.70;4.50;;;6.20;1.00;;;;;;8391443;28;20191;-65
2024/01/26 09:30:05;;;;;;;11.17;4.30;;;6.30;1.00;;;;;;8396278;28;20189;-64
2024/01/26 09:34:06;;;;;;;13.93;4.53;;;6.40;1.00;;;;;;8387793;28;20580;-64
2024/01/26 09:38:07;;;;;;;16.33;5.20;;;6.60;1.00;;;;;;8392094;28;20194;-64
2024/01/26 09:42:09;;;;;;;11.80;4.43;;;6.80;1.00;;;;;;8392812;28;20220;-66
2024/01/26 09:46:10;;;;;;;13.37;4.67;;;6.90;1.00;;;;;;8403443;28;20267;-65
2024/01/26 09:50:13;;;;;;;7.63;4.07;;;7.10;1.00;;;;;;8401077;28;20206;-65
2024/01/26 09:54:17;;;;;;;9.00;4.10;;;7.20;1.00;;;;;;8390802;28;20193;-65
2024/01/26 09:58:18;;;;;;;12.97;4.03;;;7.30;1.00;;;;;;8393074;28;20223;-65
2024/01/26 10:02:22;;;;;;;11.17;3.80;;;7.50;1.00;;;;;;8393048;28;20204;-65
2024/01/26 10:06:23;;;;;;;8.33;3.70;;;7.70;1.00;;;;;;8394610;28;20660;-65
2024/01/26 10:10:27;;;;;;;10.77;4.50;;;7.80;1.00;;;;;;8392627;28;20193;-65
2024/01/26 10:14:28;;;;;;;11.93;4.40;;;7.90;1.00;;;;;;8394062;28;20260;-65
2024/01/26 10:18:47;;;;;;;12.60;4.13;;;8.10;1.00;;;;;;8393657;28;20189;-65
2024/01/26 10:22:48;;;;;;;13.33;5.03;;;8.20;1.00;;;;;;8389472;28;20221;-65
2024/01/26 10:26:50;;;;;;;9.03;4.07;;;8.20;1.00;;;;;;8397484;28;20189;-66
2024/01/26 10:30:50;;;;;;;9.70;3.70;;;8.40;1.00;;;;;;8393930;28;20201;-65
2024/01/26 10:34:54;;;;;;;8.27;4.17;;;8.60;1.00;;;;;;8396052;28;20205;-65
2024/01/26 10:38:55;;;;;;;9.33;3.77;;;8.70;1.00;;;;;;8408852;28;20196;-65
2024/01/26 10:42:56;;;;;;;10.00;4.17;;;8.80;1.00;;;;;;8391089;28;20207;-65
2024/01/26 10:47:00;;;;;;;10.33;4.00;;;8.90;1.00;;;;;;8392683;28;20219;-65
2024/01/26 10:51:03;;;;;;;10.50;3.10;;;8.90;1.00;;;;;;8396047;28;20193;-65
2024/01/26 10:55:06;;;;;;;8.07;3.63;;;9.00;1.00;;;;;;8394153;28;20198;-65
2024/01/26 10:59:09;;;;;;;9.17;3.50;;;9.10;1.00;;;;;;8395344;28;20284;-65
2024/01/26 11:03:10;;;;;;;7.23;2.90;;;9.20;1.00;;;;;;8391246;28;20221;-64
2024/01/26 11:07:11;;;;;;;8.80;3.50;;;9.30;1.00;;;;;;8384286;28;20184;-64
2024/01/26 11:11:14;;;;;;;8.37;3.37;;;9.50;1.00;;;;;;8383289;28;20196;-64
2024/01/26 11:15:18;;;;;;;7.43;3.30;;;9.60;1.00;;;;;;8394828;28;20196;-64
2024/01/26 11:19:22;;;;;;;7.50;2.60;;;9.70;1.00;;;;;;8386878;28;20188;-64
2024/01/26 11:23:23;;;;;;;6.73;2.67;;;9.60;1.00;;;;;;8387363;28;20215;-64
2024/01/26 11:27:27;;;;;;;9.23;2.77;;;9.60;1.00;;;;;;8401727;28;20219;-64
2024/01/26 11:31:28;;;;;;;9.50;3.00;;;9.70;1.00;;;;;;8396197;28;20199;-64
2024/01/26 11:35:29;;;;;;;6.40;2.43;;;9.60;1.00;;;;;;8391948;28;20238;-65
2024/01/26 11:39:32;;;;;;;6.43;2.20;;;9.70;1.00;;;;;;8393323;28;20204;-64
2024/01/26 11:43:46;;;;;;;5.73;2.47;;;9.80;1.00;;;;;;8400006;28;20200;-64
2024/01/26 11:47:47;;;;;;;5.00;2.53;;;9.90;1.00;;;;;;8393267;28;20181;-64
2024/01/26 11:51:48;;;;;;;7.17;2.23;;;9.80;1.00;;;;;;8393789;28;20662;-64
2024/01/26 11:55:52;;;;;;;9.77;2.40;;;9.80;1.00;;;;;;8397790;28;20270;-64
2024/01/26 11:59:52;;;;;;;5.23;2.07;;;9.80;1.00;;;;;;8393348;28;20357;-64
2024/01/26 12:03:53;;;;;;;4.93;2.13;;;9.90;1.00;;;;;;8395292;28;20245;-65
2024/01/26 12:07:55;;;;;;;4.97;2.00;;;10.10;1.00;;;;;;8393666;28;20206;-65
2024/01/26 12:11:56;;;;;;;8.53;2.77;;;10.20;1.00;;;;;;8392751;28;20226;-66
2024/01/26 12:15:57;;;;;;;4.17;2.03;;;10.20;1.00;;;;;;8393241;28;20193;-66
2024/01/26 12:19:58;;;;;;;8.17;2.20;;;10.10;1.00;;;;;;8397162;28;20217;-66
2024/01/26 12:23:59;;;;;;;8.57;2.60;;;10.00;1.00;;;;;;8395652;28;20191;-66
2024/01/26 12:28:02;;;;;;;6.40;3.10;;;9.90;1.00;;;;;;8397240;28;20177;-65
2024/01/26 12:32:04;;;;;;;6.57;2.90;;;9.70;1.00;;;;;;8396212;28;20215;-65
2024/01/26 12:36:13;;;;;;;14.87;4.73;;;9.60;1.00;;;;;;8397267;28;20235;-65
2024/01/26 12:40:13;;;;;;;11.60;5.27;;;9.30;1.00;;;;;;8399356;28;20216;-65
2024/01/26 12:44:14;;;;;;;14.97;5.90;;;9.10;1.00;;;;;;8398929;28;20681;-65
2024/01/26 12:48:15;;;;;;;12.60;5.27;;;8.90;1.00;;;;;;8399299;28;20195;-65
2024/01/26 12:52:18;;;;;;;9.50;4.43;;;8.90;1.00;;;;;;8396754;28;20191;-65
2024/01/26 12:56:19;;;;;;;9.07;4.37;;;8.90;1.00;;;;;;8401123;28;20234;-64
2024/01/26 13:00:20;;;;;;;17.60;7.57;;;8.80;1.00;;;;;;8396289;28;20210;-64
2024/01/26 13:04:21;;;;;;;43.83;17.60;;;8.80;1.00;;;;;;8399609;28;20445;-64
2024/01/26 13:08:22;;;;;;;30.20;13.47;;;8.80;1.00;;;;;;8407155;28;20185;-64
2024/01/26 13:12:23;;;;;;;14.00;6.40;;;8.80;1.00;;;;;;8394264;28;20183;-64
2024/01/26 13:16:24;;;;;;;8.87;4.80;;;8.80;1.00;;;;;;8395390;28;20187;-64
2024/01/26 13:20:24;;;;;;;6.90;3.53;;;8.90;1.00;;;;;;8394371;28;20202;-63
2024/01/26 13:24:25;;;;;;;7.90;3.80;;;8.90;1.00;;;;;;8399712;28;20187;-64
2024/01/26 13:28:26;;;;;;;9.17;4.37;;;8.90;1.00;;;;;;8395687;28;20271;-64
2024/01/26 13:32:27;;;;;;;9.07;4.17;;;9.10;1.00;;;;;;8393300;28;20184;-63
2024/01/26 13:36:28;;;;;;;6.17;4.20;;;9.20;1.00;;;;;;8400102;28;20289;-64
2024/01/26 13:40:29;;;;;;;10.53;4.00;;;9.20;1.00;;;;;;8394892;28;20222;-64
2024/01/26 13:44:30;;;;;;;7.47;3.70;;;9.30;1.00;;;;;;8399250;28;20183;-63
2024/01/26 13:48:34;;;;;;;10.23;4.00;;;9.30;1.00;;;;;;8400202;28;20209;-64
2024/01/26 13:52:35;;;;;;;8.07;3.70;;;9.30;1.00;;;;;;8397451;28;20190;-64
2024/01/26 13:56:37;;;;;;;6.53;3.73;;;9.20;1.00;;;;;;8406068;28;20215;-64
2024/01/26 14:00:38;;;;;;;6.23;2.83;;;9.10;1.00;;;;;;8407579;28;20332;-64
2024/01/26 14:04:39;;;;;;;6.97;3.30;;;9.10;1.00;;;;;;8400812;28;20192;-63
2024/01/26 14:08:40;;;;;;;6.27;3.07;;;9.00;1.00;;;;;;8396218;28;20206;-63
2024/01/26 14:12:42;;;;;;;8.57;3.17;;;9.00;1.00;;;;;;8395176;28;20194;-63
2024/01/26 14:16:43;;;;;;;6.37;3.10;;;8.90;1.00;;;;;;8399463;28;20277;-64
2024/01/26 14:20:43;;;;;;;9.33;3.53;;;8.90;1.00;;;;;;8391779;28;20219;-64
2024/01/26 14:24:44;;;;;;;8.87;3.27;;;8.80;1.00;;;;;;8392372;28;20179;-65
2024/01/26 14:28:46;;;;;;;5.23;3.10;;;8.70;1.00;;;;;;8395859;28;20189;-65
2024/01/26 14:32:47;;;;;;;5.73;3.00;;;8.60;1.00;;;;;;8393793;28;20282;-65
2024/01/26 14:36:48;;;;;;;5.70;3.17;;;8.60;1.00;;;;;;8395823;28;20210;-64
2024/01/26 14:40:49;;;;;;;5.37;2.80;;;8.50;1.00;;;;;;8395696;28;20213;-64
2024/01/26 14:44:49;;;;;;;6.90;3.27;;;8.50;1.00;;;;;;8393831;28;20559;-63
2024/01/26 14:48:50;;;;;;;7.00;3.13;;;8.40;1.00;;;;;;8386259;28;20191;-63
2024/01/26 14:52:52;;;;;;;4.83;3.00;;;8.30;20.50;;;;;;8389715;28;20296;-63
2024/01/26 14:56:53;;;;;;;6.23;3.60;;;8.20;93.40;;;;;;8387299;28;20188;-64
2024/01/26 15:00:53;;;;;;;7.27;3.70;;;8.00;99.90;;;;;;8393923;28;20256;-64
2024/01/26 15:04:54;;;;;;;8.70;3.57;;;7.80;99.90;;;;;;8398896;28;20638;-63
2024/01/26 15:08:55;;;;;;;10.87;4.30;;;7.70;99.90;;;;;;8401911;28;20182;-63
2024/01/26 15:12:56;;;;;;;8.60;4.63;;;7.60;99.90;;;;;;8399937;28;20196;-63
2024/01/26 15:16:56;;;;;;;11.13;5.47;;;7.60;1.00;;;;;;8402676;28;20278;-65
2024/01/26 15:20:57;;;;;;;10.40;5.33;;;7.50;1.00;;;;;;8406941;28;20654;-64
2024/01/26 15:24:59;;;;;;;8.93;4.67;;;7.50;50.20;;;;;;8399330;28;20192;-64
2024/01/26 15:29:01;;;;;;;8.33;5.23;;;7.40;99.90;;;;;;8400805;28;20187;-64
2024/01/26 15:33:02;;;;;;;8.67;5.10;;;7.40;99.90;;;;;;8400305;28;20188;-65
2024/01/26 15:37:03;;;;;;;8.27;4.90;;;7.40;99.90;;;;;;8399312;28;20287;-64
2024/01/26 15:41:04;;;;;;;7.80;4.80;;;7.30;99.90;;;;;;8399275;28;20226;-65
2024/01/26 15:45:05;;;;;;;9.43;5.23;;;7.30;99.90;;;;;;8398997;28;20182;-65
2024/01/26 15:49:08;;;;;;;8.97;4.90;;;7.30;99.90;;;;;;8398863;28;20188;-63
2024/01/26 15:53:08;;;;;;;8.87;5.30;;;7.30;1.00;;;;;;8401041;28;20224;-65
2024/01/26 15:57:09;;;;;;;10.83;6.73;;;7.30;1.00;;;;;;8398446;28;20189;-64
2024/01/26 16:01:10;;;;;;;12.50;7.00;;;7.40;1.00;;;;;;8397235;28;20319;-64
2024/01/26 16:05:11;;;;;;;10.50;6.33;;;7.40;58.90;;;;;;8395934;28;20478;-60
2024/01/26 16:09:12;;;;;;;8.33;6.10;;;7.40;99.90;;;;;;8399387;28;20192;-60
2024/01/26 16:13:13;;;;;;;9.37;6.20;;;7.30;47.80;;;;;;8390723;28;20242;-60
2024/01/26 16:17:17;;;;;;;9.30;6.23;;;7.30;1.00;;;;;;8396896;28;20177;-62
2024/01/26 16:21:18;;;;;;;8.07;5.73;;;7.30;1.00;;;;;;8394420;28;20205;-60
2024/01/26 16:25:18;;;;;;;8.83;5.30;;;7.20;99.90;;;;;;8397303;28;20175;-61
2024/01/26 16:29:19;;;;;;;7.80;4.50;;;7.20;99.90;;;;;;8394824;28;20276;-61
2024/01/26 16:33:20;;;;;;;9.60;6.80;;;7.20;1.00;;;;;;8400738;28;20247;-59
2024/01/26 16:37:21;;;;;;;9.90;6.37;;;7.30;1.00;;;;;;8399615;28;20191;-61
2024/01/26 16:41:21;;;;;;;8.17;5.40;;;7.30;99.90;;;;;;8395127;28;20205;-60
2024/01/26 16:45:23;;;;;;;9.73;5.53;;;7.30;21.20;;;;;;8394109;28;20279;-60
2024/01/26 16:49:24;;;;;;;9.90;6.10;;;7.30;1.00;;;;;;8395582;28;20570;-61
2024/01/26 16:53:24;;;;;;;6.87;5.13;;;7.40;99.90;;;;;;8390632;28;20196;-59
2024/01/26 16:57:25;;;;;;;7.20;5.17;;;7.40;99.90;;;;;;8399073;28;20185;-62
2024/01/26 17:01:28;;;;;;;7.77;4.00;;;7.40;1.00;;;;;;8398721;28;20324;-61
2024/01/26 17:05:28;;;;;;;5.33;4.27;;;7.50;1.00;;;;;;8398542;28;20563;-60
2024/01/26 17:09:29;;;;;;;7.40;4.70;;;7.50;99.90;;;;;;8392856;28;20188;-61
2024/01/26 17:13:31;;;;;;;4.97;4.00;;;7.50;99.90;;;;;;8395874;28;20270;-63
2024/01/26 17:17:32;;;;;;;5.03;3.90;;;7.60;99.90;;;;;;8391836;28;20483;-66
2024/01/26 17:21:35;;;;;;;6.47;4.17;;;7.60;99.90;;;;;;8395562;28;20207;-63
2024/01/26 17:25:35;;;;;;;5.80;4.10;;;7.60;1.00;;;;;;8393795;28;20204;-62
2024/01/26 17:29:36;;;;;;;5.47;3.47;;;7.60;99.90;;;;;;8392492;28;20185;-63
2024/01/26 17:33:37;;;;;;;4.60;3.47;;;7.60;99.90;;;;;;8389141;28;20212;-63
2024/01/26 17:37:38;;;;;;;7.97;4.60;;;7.60;99.90;;;;;;8394383;28;20185;-63
2024/01/26 17:41:39;;;;;;;6.77;3.80;;;7.60;99.90;;;;;;8392255;28;20208;-64
2024/01/26 17:45:39;;;;;;;4.93;3.53;;;7.60;99.90;;;;;;8390685;28;20185;-67
2024/01/26 17:49:40;;;;;;;4.53;3.20;;;7.60;99.90;;;;;;8393879;28;20192;-64
2024/01/26 17:53:41;;;;;;;5.07;3.00;;;7.50;99.90;;;;;;8392380;28;20209;-64
2024/01/26 17:57:42;;;;;;;5.03;3.13;;;7.60;1.00;;;;;;8389790;28;20198;-64
2024/01/26 18:01:44;;;;;;;4.00;2.60;;;7.60;99.90;;;;;;8391080;28;20216;-64
2024/01/26 18:05:44;;;;;;;5.43;2.90;;;7.60;99.90;;;;;;8394351;28;20189;-63
2024/01/26 18:09:45;;;;;;;3.33;2.40;;;7.50;91.70;;;;;;8391689;28;20189;-63
2024/01/26 18:13:46;;;;;;;3.33;1.63;;;7.50;99.90;;;;;;8388399;28;20182;-63
2024/01/26 18:17:47;;;;;;;2.07;1.60;;;7.50;1.00;;;;;;8391549;28;20469;-62
2024/01/26 18:21:47;;;;;;;1.93;1.20;;;7.50;1.00;;;;;;8386079;28;20251;-61
2024/01/26 18:25:48;;;;;;;2.40;1.07;;;7.50;1.00;;;;;;8389809;28;20190;-61
2024/01/26 18:29:52;;;;;;;1.70;0.90;;;7.50;99.90;;;;;;8393177;28;20247;-62
2024/01/26 18:33:52;;;;;;;2.97;0.70;;;7.40;1.00;;;;;;8388505;28;20284;-64
2024/01/26 18:37:53;;;;;;;3.37;0.80;;;7.40;99.90;;;;;;8389661;28;20207;-63
2024/01/26 18:41:54;;;;;;;2.40;0.60;;;7.30;99.90;;;;;;8393752;28;20234;-63
2024/01/26 18:45:56;;;;;;;2.23;0.73;;;7.20;99.90;;;;;;8390202;28;20201;-61
2024/01/26 18:49:59;;;;;;;3.37;1.00;;;7.20;99.90;;;;;;8390509;28;20215;-61
2024/01/26 18:54:02;;;;;;;2.70;0.97;;;7.10;1.00;;;;;;8390073;28;20185;-62
2024/01/26 18:58:03;;;;;;;1.93;0.80;;;7.00;1.00;;;;;;8391736;28;20188;-60
2024/01/26 19:02:05;;;;;;;1.43;1.00;;;7.00;96.70;;;;;;8392488;28;20332;-62
2024/01/26 19:06:07;;;;;;;1.80;0.90;;;7.00;99.90;;;;;;8388494;28;20185;-62
2024/01/26 19:10:09;;;;;;;1.03;0.50;;;7.10;1.00;;;;;;8389928;28;20174;-62
2024/01/26 19:14:09;;;;;;;2.47;0.80;;;7.10;99.90;;;;;;8387282;28;20477;-61
2024/01/26 19:18:15;;;;;;;2.63;0.93;;;7.10;99.90;;;;;;8384291;28;20189;-65
2024/01/26 19:22:16;;;;;;;1.50;0.93;;;7.10;99.90;;;;;;8386186;28;20247;-62
2024/01/26 19:26:17;;;;;;;1.17;0.50;;;7.10;99.90;;;;;;8384496;28;20181;-61
2024/01/26 19:30:18;;;;;;;1.70;0.60;;;7.10;99.90;;;;;;8392505;28;20267;-61
2024/01/26 19:34:20;;;;;;;1.40;0.50;;;7.00;99.90;;;;;;8387645;28;20200;-62
2024/01/26 19:38:21;;;;;;;3.40;0.93;;;6.90;99.90;;;;;;8388987;28;20184;-61
2024/01/26 19:42:21;;;;;;;5.73;1.03;;;6.90;99.90;;;;;;8395742;28;20292;-62
2024/01/26 19:46:22;;;;;;;1.80;0.73;;;6.60;99.90;;;;;;8386366;28;20185;-63
2024/01/26 19:50:23;;;;;;;2.67;0.70;;;6.50;1.00;;;;;;8391172;28;20240;-65
2024/01/26 19:54:24;;;;;;;1.60;0.57;;;6.40;99.90;;;;;;8388698;28;20499;-62
2024/01/26 19:58:24;;;;;;;2.37;1.20;;;6.40;99.90;;;;;;8389082;28;20309;-61
2024/01/26 20:02:25;;;;;;;1.67;0.60;;;6.50;99.90;;;;;;8388724;28;20220;-62
2024/01/26 20:06:26;;;;;;;1.27;0.60;;;6.50;99.90;;;;;;8395721;28;20181;-62
2024/01/26 20:10:27;;;;;;;2.73;0.80;;;6.50;99.90;;;;;;8390730;28;20199;-61
2024/01/26 20:14:28;;;;;;;1.57;0.90;;;6.40;99.90;;;;;;8391916;28;20200;-62
2024/01/26 20:18:28;;;;;;;2.83;1.10;;;6.30;99.90;;;;;;8391629;28;20196;-63
2024/01/26 20:22:30;;;;;;;3.23;1.00;;;6.30;49.70;;;;;;8393527;28;20204;-64
2024/01/26 20:26:31;;;;;;;3.63;1.27;;;6.40;2.70;;;;;;8395792;28;20185;-62
2024/01/26 20:30:32;;;;;;;3.03;1.10;;;6.40;10.60;;;;;;8392204;28;20249;-62
2024/01/26 20:34:33;;;;;;;3.57;1.00;;;6.30;2.10;;;;;;8392100;28;20204;-62
2024/01/26 20:38:35;;;;;;;2.20;1.10;;;6.30;1.00;;;;;;8391124;28;20173;-65
2024/01/26 20:42:36;;;;;;;1.70;0.97;;;6.30;1.00;;;;;;8390855;28;20201;-60
2024/01/26 20:46:37;;;;;;;3.03;1.00;;;6.20;1.00;;;;;;8393048;28;20207;-60
2024/01/26 20:50:37;;;;;;;1.87;1.07;;;6.20;1.00;;;;;;8392234;28;20192;-62
2024/01/26 20:54:39;;;;;;;5.13;1.50;;;6.10;1.00;;;;;;8393745;28;20180;-63
2024/01/26 20:58:39;;;;;;;8.43;1.23;;;6.10;1.00;;;;;;8392680;28;20208;-61
2024/01/26 21:02:40;;;;;;;6.70;1.30;;;6.00;1.00;;;;;;8400827;28;20319;-62
2024/01/26 21:06:41;;;;;;;8.33;1.33;;;5.90;1.00;;;;;;8391181;28;20183;-61
2024/01/26 21:10:44;;;;;;;5.30;1.03;;;5.80;1.00;;;;;;8392425;28;20188;-61
2024/01/26 21:14:45;;;;;;;4.43;1.30;;;5.60;1.00;;;;;;8389026;28;20184;-60